Terminal Aerodrome Forecast
Issued by NWS

Home | Current Version | Previous Version | Text Only | Print | Product List | Glossary On
Versions: 1 2 3 4 5 6 7 8 9 10 11 12 13 14 15 16 17 18 19 20 21 22 23 24 25 26 27 28
916
FTAK31 PANC 270538
TAFAIL
TAF
PAIL 270538Z 2706/2806 16005KT P6SM -RA BKN045
     FM271200 VRB03KT P6SM VCSH BKN045
     FM272200 VRB03KT P6SM OVC050=

USA.gov is the U.S. government's official web portal to all federal, state and local government web resources and services.